createdAt,value
2022-10-01T00:00:54.070Z,98961.44
2022-10-01T00:03:22.240Z,98976.84
2022-10-01T00:06:09.745Z,98964.97
2022-10-01T00:08:37.594Z,98977.78
2022-10-01T00:11:18.384Z,98978.63
2022-10-01T00:13:46.321Z,98962.44
2022-10-01T00:16:15.477Z,98969.25
2022-10-01T00:18:43.471Z,98961.34
2022-10-01T00:21:12.181Z,98958.88
2022-10-01T00:23:39.195Z,98966.63
2022-10-01T00:26:28.528Z,98963.28
2022-10-01T00:28:58.014Z,98983.84
2022-10-01T00:31:25.330Z,98979.72
2022-10-01T00:33:53.909Z,98983.06
2022-10-01T00:36:21.137Z,98977.97
2022-10-01T00:38:48.970Z,98988.25
2022-10-01T00:41:17.565Z,98982.28
2022-10-01T00:43:50.713Z,98984.81
2022-10-01T00:46:25.336Z,98976.31
2022-10-01T00:49:01.263Z,98964.28
2022-10-01T00:51:35.652Z,98974.50
2022-10-01T00:54:18.071Z,98977.78
2022-10-01T00:56:47.588Z,98975.25
2022-10-01T00:59:15.367Z,98984.81
2022-10-01T01:01:42.447Z,98972.75
2022-10-01T01:04:16.788Z,98970.97
2022-10-01T01:06:45.487Z,98967.53
2022-10-01T01:09:12.546Z,98948.69
2022-10-01T01:11:48.313Z,98954.53
2022-10-01T01:14:41.544Z,98966.75
2022-10-01T01:17:12.986Z,98959.09
2022-10-01T01:20:01.973Z,98979.69
2022-10-01T01:22:30.125Z,98973.59
2022-10-01T01:24:59.901Z,98963.28
2022-10-01T01:27:35.717Z,98951.28
2022-10-01T01:30:08.550Z,98952.94
2022-10-01T01:32:42.991Z,98953.72
2022-10-01T01:35:10.580Z,98964.09
2022-10-01T01:37:54.974Z,98961.56
2022-10-01T01:40:21.975Z,98948.69
2022-10-01T01:42:49.151Z,98947.72
2022-10-01T01:45:19.278Z,98944.25
2022-10-01T01:47:46.280Z,98948.69
2022-10-01T01:50:13.922Z,98946.81
2022-10-01T01:52:41.565Z,98945.22
2022-10-01T01:55:09.419Z,98940.94
2022-10-01T01:57:43.652Z,98945.94
2022-10-01T02:00:12.750Z,98939.91
2022-10-01T02:02:40.483Z,98938.16
2022-10-01T02:05:10.593Z,98927.81
2022-10-01T02:07:47.906Z,98937.34
2022-10-01T02:10:48.733Z,98937.41
2022-10-01T02:13:40.045Z,98940.03
2022-10-01T02:16:19.242Z,98941.75
2022-10-01T02:19:23.930Z,98951.28
2022-10-01T02:21:53.551Z,98944.16
2022-10-01T02:24:41.648Z,98945.53
2022-10-01T02:27:41.501Z,98927.38
2022-10-01T02:30:09.205Z,98925.56
2022-10-01T02:32:37.853Z,98939.22
2022-10-01T02:35:09.030Z,98935.72
2022-10-01T02:37:36.354Z,98938.34
2022-10-01T02:40:03.742Z,98934.13
2022-10-01T02:42:30.858Z,98940.94
2022-10-01T02:44:57.882Z,98943.47
2022-10-01T02:47:33.519Z,98940.13
2022-10-01T02:50:01.920Z,98939.25
2022-10-01T02:52:28.736Z,98938.28
2022-10-01T02:55:08.013Z,98931.47
2022-10-01T02:57:35.814Z,98930.66
2022-10-01T03:00:08.800Z,98934.00
2022-10-01T03:02:35.825Z,98924.75
2022-10-01T03:05:02.965Z,98922.03
2022-10-01T03:07:31.389Z,98922.03
2022-10-01T03:09:58.459Z,98917.69
2022-10-01T03:12:25.478Z,98922.84
2022-10-01T03:14:53.313Z,98919.53
2022-10-01T03:17:20.464Z,98916.00
2022-10-01T03:19:47.414Z,98919.44
2022-10-01T03:22:16.408Z,98915.94
2022-10-01T03:24:43.387Z,98906.53
2022-10-01T03:27:10.456Z,98917.59
2022-10-01T03:29:37.545Z,98897.81
2022-10-01T03:32:04.552Z,98896.09
2022-10-01T03:34:31.531Z,98890.03
2022-10-01T03:36:58.488Z,98892.66
2022-10-01T03:39:25.466Z,98887.38
2022-10-01T03:41:52.464Z,98883.06
2022-10-01T03:44:19.510Z,98881.44
2022-10-01T03:46:46.440Z,98886.56
2022-10-01T03:49:13.482Z,98883.16
2022-10-01T03:51:40.626Z,98882.22
2022-10-01T03:54:07.983Z,98877.03
2022-10-01T03:56:35.518Z,98885.66
2022-10-01T03:59:02.612Z,98878.78
2022-10-01T04:01:31.019Z,98871.09
2022-10-01T04:03:58.166Z,98876.19
2022-10-01T04:06:25.161Z,98866.97
2022-10-01T04:08:52.113Z,98881.38
2022-10-01T04:11:19.205Z,98877.88
2022-10-01T04:13:46.080Z,98872.75
2022-10-01T04:16:13.118Z,98877.94
2022-10-01T04:18:40.082Z,98865.94
2022-10-01T04:21:06.998Z,98869.31
2022-10-01T04:23:33.952Z,98853.19
2022-10-01T04:26:02.480Z,98865.84
2022-10-01T04:28:30.567Z,98874.44
2022-10-01T04:31:17.615Z,98875.34
2022-10-01T04:33:44.808Z,98879.75
2022-10-01T04:36:11.984Z,98878.78
2022-10-01T04:38:38.918Z,98878.81
2022-10-01T04:41:06.058Z,98878.78
2022-10-01T04:43:33.011Z,98876.31
2022-10-01T04:45:59.946Z,98867.03
2022-10-01T04:48:26.824Z,98889.16
2022-10-01T04:50:53.708Z,98883.97
2022-10-01T04:53:20.758Z,98884.84
2022-10-01T04:55:47.678Z,98887.38
2022-10-01T04:58:14.748Z,98887.38
2022-10-01T05:00:41.710Z,98882.25
2022-10-01T05:03:08.680Z,98878.84
2022-10-01T05:05:35.686Z,98885.78
2022-10-01T05:08:02.605Z,98889.97
2022-10-01T05:10:29.587Z,98886.56
2022-10-01T05:12:58.131Z,98889.16
2022-10-01T05:15:25.108Z,98873.88
2022-10-01T05:17:52.287Z,98883.25
2022-10-01T05:20:20.826Z,98884.84
2022-10-01T05:22:49.169Z,98884.84
2022-10-01T05:25:16.886Z,98891.75
2022-10-01T05:27:43.951Z,98894.31
2022-10-01T05:30:12.288Z,98896.97
2022-10-01T05:32:39.301Z,98904.63
2022-10-01T05:35:07.263Z,98898.78
2022-10-01T05:37:34.780Z,98910.66
2022-10-01T05:40:01.914Z,98915.81
2022-10-01T05:42:29.047Z,98910.66
2022-10-01T05:44:56.256Z,98908.91
2022-10-01T05:47:23.426Z,98904.59
2022-10-01T05:49:50.443Z,98882.47
2022-10-01T05:52:17.310Z,98902.88
2022-10-01T05:54:44.295Z,98898.59
2022-10-01T05:57:11.329Z,98884.13
2022-10-01T05:59:38.276Z,98900.28
2022-10-01T06:02:05.465Z,98897.75
2022-10-01T06:04:32.485Z,98906.25
2022-10-01T06:06:59.662Z,98900.28
2022-10-01T06:09:26.665Z,98905.47
2022-10-01T06:11:53.811Z,98888.34
2022-10-01T06:14:20.703Z,98892.59
2022-10-01T06:16:53.927Z,98895.09
2022-10-01T06:19:23.094Z,98891.75
2022-10-01T06:21:50.134Z,98907.06
2022-10-01T06:24:17.172Z,98901.84
2022-10-01T06:26:44.099Z,98903.59
2022-10-01T06:29:12.742Z,98905.38
2022-10-01T06:31:39.873Z,98899.34
2022-10-01T06:34:07.030Z,98906.09
2022-10-01T06:36:34.310Z,98907.94
2022-10-01T06:39:01.381Z,98907.88
2022-10-01T06:41:28.658Z,98903.59
2022-10-01T06:43:55.883Z,98894.25
2022-10-01T06:46:24.238Z,98885.66
2022-10-01T06:48:51.329Z,98896.56
2022-10-01T06:51:38.143Z,98882.16
2022-10-01T06:54:05.150Z,98896.66
2022-10-01T06:56:32.114Z,98897.41
2022-10-01T06:58:59.093Z,98897.41
2022-10-01T07:01:26.041Z,98888.78
2022-10-01T07:03:54.324Z,98882.72
2022-10-01T07:06:21.238Z,98883.47
2022-10-01T07:08:51.450Z,98884.28
2022-10-01T07:11:19.331Z,98884.34
2022-10-01T07:13:52.350Z,98872.34
2022-10-01T07:16:21.369Z,98880.84
2022-10-01T07:18:48.460Z,98867.22
2022-10-01T07:21:15.555Z,98869.75
2022-10-01T07:23:43.388Z,98875.66
2022-10-01T07:26:10.611Z,98865.31
2022-10-01T07:28:37.576Z,98874.69
2022-10-01T07:31:11.582Z,98868.72
2022-10-01T07:33:39.484Z,98852.53
2022-10-01T07:36:07.710Z,98865.22
2022-10-01T07:38:34.858Z,98865.22
2022-10-01T07:41:03.027Z,98865.09
2022-10-01T07:43:31.209Z,98866.78
2022-10-01T07:45:58.439Z,98856.50
2022-10-01T07:48:25.814Z,98860.72
2022-10-01T07:50:53.153Z,98871.91
2022-10-01T07:53:20.113Z,98846.91
2022-10-01T07:55:47.020Z,98863.22
2022-10-01T07:58:13.918Z,98856.38
2022-10-01T08:00:43.596Z,98864.84
2022-10-01T08:03:13.339Z,98864.84
2022-10-01T08:05:41.464Z,98840.00
2022-10-01T08:08:08.865Z,98850.16
2022-10-01T08:10:37.014Z,98843.38
2022-10-01T08:13:28.206Z,98838.19
2022-10-01T08:18:58.423Z,98838.31
2022-10-01T08:21:26.596Z,98854.41
2022-10-01T08:23:53.826Z,98831.47
2022-10-01T08:26:20.939Z,98855.06
2022-10-01T08:28:47.849Z,98858.53
2022-10-01T08:31:14.813Z,98854.97
2022-10-01T08:33:41.770Z,98836.31
2022-10-01T08:36:09.054Z,98858.38
2022-10-01T08:38:37.459Z,98859.25
2022-10-01T08:41:27.486Z,98858.28
2022-10-01T08:43:54.445Z,98859.19
2022-10-01T08:46:22.970Z,98865.16
2022-10-01T08:48:58.809Z,98872.06
2022-10-01T08:51:28.221Z,98864.31
2022-10-01T08:54:13.686Z,98859.09
2022-10-01T08:56:44.598Z,98866.88
2022-10-01T08:59:27.412Z,98855.84
2022-10-01T09:01:59.240Z,98858.34
2022-10-01T09:04:29.623Z,98822.53
2022-10-01T09:07:05.697Z,98846.44
2022-10-01T09:09:46.864Z,98861.59
2022-10-01T09:12:21.319Z,98856.41
2022-10-01T09:15:06.674Z,98855.44
2022-10-01T09:17:52.388Z,98858.13
2022-10-01T09:20:57.725Z,98854.69
2022-10-01T09:23:29.612Z,98841.69
2022-10-01T09:26:00.243Z,98851.22
2022-10-01T09:28:31.808Z,98843.25
2022-10-01T09:31:17.911Z,98847.59
2022-10-01T09:33:51.134Z,98850.97
2022-10-01T09:36:43.723Z,98853.66
2022-10-01T09:39:44.938Z,98858.91
2022-10-01T09:42:14.045Z,98848.63
2022-10-01T09:44:42.859Z,98841.63
2022-10-01T09:47:18.619Z,98849.16
2022-10-01T09:49:51.216Z,98843.13
2022-10-01T09:52:37.508Z,98845.81
2022-10-01T09:55:26.647Z,98831.50
2022-10-01T09:58:05.533Z,98841.38
2022-10-01T10:00:35.243Z,98820.22
2022-10-01T10:03:25.351Z,98812.44
2022-10-01T10:06:16.348Z,98843.91
2022-10-01T10:08:52.529Z,98820.94
2022-10-01T10:11:22.620Z,98842.88
2022-10-01T10:13:52.249Z,98808.00
2022-10-01T10:16:36.325Z,98823.88
2022-10-01T10:19:06.791Z,98811.00
2022-10-01T10:21:35.131Z,98804.22
2022-10-01T10:24:03.941Z,98810.03
2022-10-01T10:26:39.394Z,98808.06
2022-10-01T10:29:08.775Z,98808.84
2022-10-01T10:32:15.723Z,98806.34
2022-10-01T10:34:48.872Z,98802.78
2022-10-01T10:37:17.405Z,98797.34
2022-10-01T10:44:49.508Z,98793.41
2022-10-01T10:47:29.300Z,98794.00
2022-10-01T10:50:00.732Z,98787.75
2022-10-01T10:52:36.646Z,98773.25
2022-10-01T10:55:25.262Z,98779.91
2022-10-01T10:57:57.340Z,98783.09
2022-10-01T11:00:25.410Z,98759.00
2022-10-01T11:03:00.387Z,98765.59
2022-10-01T11:05:30.253Z,98764.59
2022-10-01T11:08:03.441Z,98758.47
2022-10-01T11:10:49.745Z,98741.97
2022-10-01T11:13:39.430Z,98740.13
2022-10-01T11:16:41.510Z,98740.03
2022-10-01T11:19:23.617Z,98721.94
2022-10-01T11:21:56.668Z,98716.50
2022-10-01T11:24:43.261Z,98718.13
2022-10-01T11:27:38.165Z,98716.22
2022-10-01T11:30:11.155Z,98711.56
2022-10-01T11:33:50.760Z,98708.84
2022-10-01T11:36:56.299Z,98687.75
2022-10-01T11:39:28.561Z,98659.31
2022-10-01T11:42:04.828Z,98681.63
2022-10-01T11:45:00.689Z,98672.38
2022-10-01T11:47:32.036Z,98653.31
2022-10-01T11:53:38.395Z,98651.28
2022-10-01T12:00:17.904Z,98656.56
2022-10-01T12:07:22.418Z,98641.63
2022-10-01T12:11:11.544Z,98669.09
2022-10-01T12:13:30.152Z,98664.50
2022-10-01T12:16:43.503Z,98629.56
2022-10-01T12:19:25.314Z,98659.84
2022-10-01T12:22:24.396Z,98649.38
2022-10-01T12:24:52.155Z,98640.00
2022-10-01T12:27:25.125Z,98663.66
2022-10-01T12:30:21.340Z,98654.09
2022-10-01T12:32:48.205Z,98651.56
2022-10-01T12:35:36.753Z,98641.94
2022-10-01T12:38:06.718Z,98645.72
2022-10-01T12:40:49.247Z,98639.91
2022-10-01T12:44:04.154Z,98644.38
2022-10-01T12:47:04.466Z,98646.91
2022-10-01T12:49:37.606Z,98649.38
2022-10-01T12:52:11.183Z,98647.53
2022-10-01T12:54:57.576Z,98658.03
2022-10-01T12:58:09.707Z,98627.69
2022-10-01T13:01:07.579Z,98631.16
2022-10-01T13:03:58.833Z,98650.19
2022-10-01T13:06:49.269Z,98622.38
2022-10-01T13:09:32.568Z,98627.38
2022-10-01T13:12:12.291Z,98630.09
2022-10-01T13:14:44.568Z,98619.91
2022-10-01T13:17:34.789Z,98621.78
2022-10-01T13:20:45.886Z,98620.88
2022-10-01T13:23:34.034Z,98634.50
2022-10-01T13:26:02.957Z,98629.44
2022-10-01T13:28:53.377Z,98598.00
2022-10-01T13:31:20.618Z,98605.53
2022-10-01T13:33:57.665Z,98599.03
2022-10-01T13:36:32.212Z,98611.84
2022-10-01T13:38:59.745Z,98594.78
2022-10-01T13:41:33.947Z,98624.44
2022-10-01T13:44:11.800Z,98633.16
2022-10-01T13:47:03.486Z,98635.09
2022-10-01T13:49:30.842Z,98623.84
2022-10-01T13:51:58.070Z,98621.25
2022-10-01T13:54:31.328Z,98616.03
2022-10-01T13:57:10.601Z,98607.91
2022-10-01T13:59:37.979Z,98608.03
2022-10-01T14:02:29.426Z,98612.28
2022-10-01T14:04:56.611Z,98582.50
2022-10-01T14:07:30.852Z,98592.50
2022-10-01T14:09:58.640Z,98596.88
2022-10-01T14:12:50.758Z,98605.38
2022-10-01T14:15:49.010Z,98619.09
2022-10-01T14:18:19.337Z,98613.41
2022-10-01T14:21:26.060Z,98608.34
2022-10-01T14:24:05.467Z,98619.47
2022-10-01T14:27:00.206Z,98599.44
2022-10-01T14:29:39.591Z,98630.22
2022-10-01T14:32:23.243Z,98618.31
2022-10-01T14:35:08.635Z,98615.59
2022-10-01T14:37:39.365Z,98578.03
2022-10-01T14:40:23.115Z,98594.13
2022-10-01T14:43:03.984Z,98582.44
2022-10-01T14:45:33.138Z,98601.66
2022-10-01T14:48:05.485Z,98572.03
2022-10-01T14:50:36.372Z,98591.72
2022-10-01T14:53:03.572Z,98576.31
2022-10-01T14:55:30.897Z,98596.84
2022-10-01T14:57:58.092Z,98607.22
2022-10-01T15:00:29.888Z,98603.13
2022-10-01T15:03:13.395Z,98603.25
2022-10-01T15:05:40.521Z,98603.31
2022-10-01T15:08:14.689Z,98593.06
2022-10-01T15:10:45.365Z,98581.38
2022-10-01T15:13:20.706Z,98570.31
2022-10-01T15:15:47.839Z,98581.38
2022-10-01T15:18:15.453Z,98590.47
2022-10-01T15:21:05.823Z,98581.38
2022-10-01T15:23:34.765Z,98578.84
2022-10-01T15:26:10.777Z,98585.50
2022-10-01T15:28:37.974Z,98570.31
2022-10-01T15:31:06.445Z,98594.13
2022-10-01T15:33:35.576Z,98567.97
2022-10-01T15:36:04.533Z,98571.56
2022-10-01T15:38:32.422Z,98572.66
2022-10-01T15:41:19.821Z,98578.59
2022-10-01T15:43:48.000Z,98577.91
2022-10-01T15:46:25.517Z,98587.97
2022-10-01T15:49:18.634Z,98613.50
2022-10-01T15:52:16.540Z,98585.75
2022-10-01T15:54:43.938Z,98602.88
2022-10-01T15:57:16.904Z,98598.91
2022-10-01T15:59:43.908Z,98597.53
2022-10-01T16:02:19.672Z,98612.84
2022-10-01T16:04:48.178Z,98612.81
2022-10-01T16:07:20.164Z,98596.78
2022-10-01T16:09:57.559Z,98602.94
2022-10-01T16:12:26.875Z,98597.66
2022-10-01T16:15:01.035Z,98595.09
2022-10-01T16:17:40.033Z,98609.53
2022-10-01T16:20:16.346Z,98616.47
2022-10-01T16:22:43.655Z,98596.03
2022-10-01T16:25:19.798Z,98618.22
2022-10-01T16:27:51.146Z,98615.47
2022-10-01T16:30:21.842Z,98607.72
2022-10-01T16:32:49.296Z,98582.31
2022-10-01T16:35:20.486Z,98604.50
2022-10-01T16:37:49.768Z,98618.16
2022-10-01T16:40:17.803Z,98598.75
2022-10-01T16:42:45.370Z,98620.97
2022-10-01T16:45:16.448Z,98631.28
2022-10-01T16:47:43.842Z,98610.34
2022-10-01T16:50:11.746Z,98613.84
2022-10-01T16:52:41.237Z,98620.16
2022-10-01T17:02:56.070Z,98608.25
2022-10-01T17:14:56.605Z,98613.84
2022-10-01T17:17:38.083Z,98614.34
2022-10-01T17:30:09.976Z,98620.44
2022-10-01T17:32:42.699Z,98630.59
2022-10-01T17:35:14.076Z,98633.25
2022-10-01T17:37:44.714Z,98630.72
2022-10-01T17:40:11.864Z,98628.06
2022-10-01T17:42:38.922Z,98650.97
2022-10-01T17:45:11.965Z,98662.03
2022-10-01T17:47:51.569Z,98628.94
2022-10-01T17:50:18.745Z,98656.03
2022-10-01T17:52:47.331Z,98649.97
2022-10-01T17:55:14.921Z,98622.13
2022-10-01T17:57:42.062Z,98649.16
2022-10-01T18:00:09.441Z,98632.19
2022-10-01T18:11:53.579Z,98635.34
2022-10-01T18:14:36.853Z,98652.91
2022-10-01T18:17:11.402Z,98626.75
2022-10-01T18:19:54.316Z,98625.94
2022-10-01T18:22:52.133Z,98637.13
2022-10-01T18:26:58.709Z,98626.97
2022-10-01T18:28:29.267Z,98668.81
2022-10-01T18:31:11.828Z,98674.00
2022-10-01T18:34:17.235Z,98643.38
2022-10-01T18:37:03.846Z,98661.19
2022-10-01T18:40:08.989Z,98646.25
2022-10-01T18:42:58.063Z,98664.81
2022-10-01T18:45:37.277Z,98670.81
2022-10-01T18:48:23.160Z,98676.91
2022-10-01T18:51:00.403Z,98676.13
2022-10-01T18:53:39.537Z,98685.66
2022-10-01T18:56:21.184Z,98686.53
2022-10-01T18:59:28.230Z,98697.97
2022-10-01T19:02:17.287Z,98693.66
2022-10-01T19:05:28.823Z,98697.31
2022-10-01T19:08:21.048Z,98692.25
2022-10-01T19:11:04.497Z,98679.66
2022-10-01T19:17:19.796Z,98683.44
2022-10-01T19:20:26.393Z,98691.09
2022-10-01T19:23:02.920Z,98696.78
2022-10-01T19:25:42.186Z,98693.38
2022-10-01T19:28:25.697Z,98666.31
2022-10-01T19:31:17.257Z,98695.34
2022-10-01T19:33:56.222Z,98687.94
2022-10-01T19:36:29.527Z,98707.75
2022-10-01T19:39:00.178Z,98700.06
2022-10-01T19:41:48.766Z,98699.47
2022-10-01T19:44:36.005Z,98701.16
2022-10-01T19:47:28.519Z,98686.91
2022-10-01T19:50:07.966Z,98716.69
2022-10-01T19:52:38.549Z,98708.41
2022-10-01T19:55:11.963Z,98710.91
2022-10-01T19:57:43.808Z,98717.84
2022-10-01T20:00:18.504Z,98716.38
2022-10-01T20:03:04.549Z,98732.44
2022-10-01T20:05:41.908Z,98716.47
2022-10-01T20:08:36.512Z,98730.88
2022-10-01T20:11:14.344Z,98714.84
2022-10-01T20:14:00.116Z,98729.16
2022-10-01T20:16:47.274Z,98707.22
2022-10-01T20:19:28.360Z,98712.34
2022-10-01T20:21:58.495Z,98725.03
2022-10-01T20:24:35.510Z,98713.88
2022-10-01T20:27:14.212Z,98718.28
2022-10-01T20:29:44.155Z,98726.03
2022-10-01T20:32:24.636Z,98730.31
2022-10-01T20:35:24.486Z,98707.66
2022-10-01T20:38:09.543Z,98739.97
2022-10-01T20:41:00.664Z,98721.25
2022-10-01T20:43:45.063Z,98730.56
2022-10-01T20:46:14.958Z,98706.00
2022-10-01T20:48:45.483Z,98726.38
2022-10-01T20:52:01.530Z,98714.59
2022-10-01T20:57:45.358Z,98725.91
2022-10-01T21:00:22.445Z,98721.53
2022-10-01T21:03:24.211Z,98748.09
2022-10-01T21:05:55.476Z,98746.31
2022-10-01T21:08:34.713Z,98730.84
2022-10-01T21:11:15.341Z,98722.53
2022-10-01T21:14:13.662Z,98743.72
2022-10-01T21:16:53.108Z,98725.16
2022-10-01T21:19:22.965Z,98724.31
2022-10-01T21:22:14.024Z,98745.50
2022-10-01T21:25:16.670Z,98744.59
2022-10-01T21:27:56.485Z,98747.28
2022-10-01T21:30:23.646Z,98725.38
2022-10-01T21:33:02.523Z,98748.94
2022-10-01T21:35:53.234Z,98756.81
2022-10-01T21:38:30.581Z,98745.09
2022-10-01T21:41:15.989Z,98761.94
2022-10-01T21:43:50.144Z,98752.63
2022-10-01T21:46:34.973Z,98763.72
2022-10-01T21:49:27.282Z,98762.03
2022-10-01T21:52:03.318Z,98775.78
2022-10-01T21:54:55.561Z,98777.56
2022-10-01T21:57:51.735Z,98773.44
2022-10-01T22:00:23.309Z,98742.72
2022-10-01T22:03:14.600Z,98775.03
2022-10-01T22:06:10.038Z,98765.00
2022-10-01T22:09:06.430Z,98781.28
2022-10-01T22:11:40.913Z,98751.50
2022-10-01T22:14:16.459Z,98776.25
2022-10-01T22:16:49.176Z,98770.34
2022-10-01T22:19:18.678Z,98785.66
2022-10-01T22:21:48.247Z,98770.31
2022-10-01T22:24:20.416Z,98790.72
2022-10-01T22:26:54.152Z,98779.66
2022-10-01T22:29:27.782Z,98779.72
2022-10-01T22:31:56.200Z,98810.09
2022-10-01T22:34:25.944Z,98797.09
2022-10-01T22:36:59.030Z,98779.06
2022-10-01T22:39:30.004Z,98770.44
2022-10-01T22:42:11.315Z,98805.25
2022-10-01T22:44:38.414Z,98797.72
2022-10-01T22:47:30.552Z,98771.25
2022-10-01T22:50:15.964Z,98803.59
2022-10-01T22:53:09.963Z,98801.09
2022-10-01T22:55:55.108Z,98815.75
2022-10-01T22:58:40.681Z,98815.69
2022-10-01T23:01:08.750Z,98824.28
2022-10-01T23:03:54.276Z,98818.25
2022-10-01T23:06:27.293Z,98825.09
2022-10-01T23:09:00.417Z,98838.03
2022-10-01T23:11:32.560Z,98804.13
2022-10-01T23:14:07.207Z,98839.78
2022-10-01T23:16:47.677Z,98846.66
2022-10-01T23:20:05.702Z,98844.91
2022-10-01T23:22:39.308Z,98833.00
2022-10-01T23:25:06.352Z,98840.38
2022-10-01T23:27:54.072Z,98837.53
2022-10-01T23:30:27.880Z,98820.59
2022-10-01T23:33:11.797Z,98849.28
2022-10-01T23:35:44.989Z,98851.63
2022-10-01T23:38:39.665Z,98847.81
2022-10-01T23:41:17.160Z,98825.72
2022-10-01T23:43:49.461Z,98828.09
2022-10-01T23:46:16.669Z,98863.06
2022-10-01T23:49:17.207Z,98845.13
2022-10-01T23:52:09.087Z,98842.75
2022-10-01T23:54:57.469Z,98837.72
2022-10-01T23:57:42.550Z,98849.69
